createdAt,value
2023-03-14T00:01:16.856Z,7.30
2023-03-14T00:03:45.834Z,7.40
2023-03-14T00:06:15.890Z,7.30
2023-03-14T00:08:47.357Z,7.30
2023-03-14T00:11:22.619Z,7.20
2023-03-14T00:13:51.709Z,7.20
2023-03-14T00:16:22.143Z,7.20
2023-03-14T00:18:51.149Z,7.20
2023-03-14T00:21:20.554Z,7.20
2023-03-14T00:23:50.516Z,7.20
2023-03-14T00:26:21.788Z,7.10
2023-03-14T00:28:54.458Z,7.10
2023-03-14T00:31:23.345Z,7.00
2023-03-14T00:33:55.187Z,7.10
2023-03-14T00:36:24.824Z,7.20
2023-03-14T00:38:54.770Z,7.30
2023-03-14T00:41:25.210Z,7.30
2023-03-14T00:43:54.474Z,7.30
2023-03-14T00:46:23.024Z,7.40
2023-03-14T00:48:52.435Z,7.40
2023-03-14T00:51:20.888Z,7.40
2023-03-14T00:53:49.345Z,7.40
2023-03-14T00:56:19.157Z,7.40
2023-03-14T00:58:47.643Z,7.50
2023-03-14T01:01:19.195Z,7.50
2023-03-14T01:03:48.602Z,7.50
2023-03-14T01:06:20.154Z,7.50
2023-03-14T01:08:48.849Z,7.50
2023-03-14T01:11:21.648Z,7.50
2023-03-14T01:13:50.312Z,7.50
2023-03-14T01:16:20.626Z,7.50
2023-03-14T01:18:51.247Z,7.40
2023-03-14T01:21:22.929Z,7.40
2023-03-14T01:23:52.552Z,7.40
2023-03-14T01:26:25.651Z,7.40
2023-03-14T01:28:56.455Z,7.40
2023-03-14T01:31:26.774Z,7.40
2023-03-14T01:33:55.676Z,7.30
2023-03-14T01:36:24.321Z,7.40
2023-03-14T01:38:52.890Z,7.30
2023-03-14T01:41:26.178Z,7.30
2023-03-14T01:43:54.716Z,7.30
2023-03-14T01:46:38.925Z,7.30
2023-03-14T01:49:17.279Z,7.30
2023-03-14T01:51:52.318Z,7.20
2023-03-14T01:54:25.769Z,7.10
2023-03-14T01:57:00.404Z,7.10
2023-03-14T01:59:30.632Z,7.10
2023-03-14T02:01:59.596Z,7.00
2023-03-14T02:04:32.935Z,7.00
2023-03-14T02:07:08.229Z,6.90
2023-03-14T02:09:38.459Z,6.90
2023-03-14T02:12:10.341Z,6.90
2023-03-14T02:14:39.543Z,6.80
2023-03-14T02:17:09.727Z,6.80
2023-03-14T02:19:58.190Z,6.80
2023-03-14T02:22:26.716Z,6.70
2023-03-14T02:25:05.593Z,6.70
2023-03-14T02:27:36.717Z,6.60
2023-03-14T02:30:09.606Z,6.60
2023-03-14T02:32:41.516Z,6.60
2023-03-14T02:35:14.579Z,6.60
2023-03-14T02:37:46.423Z,6.50
2023-03-14T02:40:15.164Z,6.50
2023-03-14T02:42:45.026Z,6.50
2023-03-14T02:45:40.663Z,6.50
2023-03-14T02:48:16.139Z,6.50
2023-03-14T02:50:46.285Z,6.50
2023-03-14T02:53:19.887Z,6.50
2023-03-14T02:55:50.024Z,6.40
2023-03-14T02:58:21.567Z,6.50
2023-03-14T03:00:50.500Z,6.50
2023-03-14T03:03:19.223Z,6.50
2023-03-14T03:05:51.850Z,6.40
2023-03-14T03:08:21.318Z,6.40
2023-03-14T03:10:49.939Z,6.50
2023-03-14T03:13:20.674Z,6.50
2023-03-14T03:15:49.485Z,6.40
2023-03-14T03:18:18.246Z,6.40
2023-03-14T03:20:46.750Z,6.40
2023-03-14T03:23:15.445Z,6.40
2023-03-14T03:25:44.127Z,6.40
2023-03-14T03:28:13.431Z,6.40
2023-03-14T03:30:44.298Z,6.40
2023-03-14T03:33:13.794Z,6.30
2023-03-14T03:35:47.665Z,6.30
2023-03-14T03:38:16.856Z,6.30
2023-03-14T03:40:45.772Z,6.30
2023-03-14T03:43:14.374Z,6.40
2023-03-14T03:45:44.254Z,6.40
2023-03-14T03:48:12.802Z,6.40
2023-03-14T03:50:47.514Z,6.40
2023-03-14T03:53:26.863Z,6.40
2023-03-14T03:56:01.099Z,6.40
2023-03-14T03:58:29.573Z,6.40
2023-03-14T04:00:59.459Z,6.40
2023-03-14T04:03:28.122Z,6.40
2023-03-14T04:06:04.049Z,6.40
2023-03-14T04:08:33.104Z,6.30
2023-03-14T04:11:03.616Z,6.40
2023-03-14T04:13:32.337Z,6.40
2023-03-14T04:16:02.185Z,6.40
2023-03-14T04:18:31.439Z,6.40
2023-03-14T04:21:00.516Z,6.40
2023-03-14T04:23:29.016Z,6.50
2023-03-14T04:25:57.453Z,6.40
2023-03-14T04:28:25.978Z,6.50
2023-03-14T04:30:54.728Z,6.50
2023-03-14T04:33:24.749Z,6.50
2023-03-14T04:35:57.496Z,6.60
2023-03-14T04:38:25.988Z,6.60
2023-03-14T04:40:54.494Z,6.60
2023-03-14T04:43:23.011Z,6.60
2023-03-14T04:45:51.479Z,6.60
2023-03-14T04:48:20.227Z,6.60
2023-03-14T04:50:51.260Z,6.60
2023-03-14T04:53:20.801Z,6.50
2023-03-14T04:55:51.687Z,6.60
2023-03-14T04:58:20.290Z,6.60
2023-03-14T05:00:49.492Z,6.60
2023-03-14T05:03:18.891Z,6.50
2023-03-14T05:05:49.071Z,6.50
2023-03-14T05:08:17.729Z,6.50
2023-03-14T05:10:46.151Z,6.50
2023-03-14T05:13:14.769Z,6.50
2023-03-14T05:15:43.397Z,6.60
2023-03-14T05:18:11.826Z,6.90
2023-03-14T05:20:40.484Z,6.60
2023-03-14T05:23:10.295Z,6.60
2023-03-14T05:25:38.976Z,6.60
2023-03-14T05:28:07.628Z,6.60
2023-03-14T05:30:36.076Z,6.60
2023-03-14T05:33:04.721Z,6.60
2023-03-14T05:35:33.200Z,6.60
2023-03-14T05:38:01.671Z,6.70
2023-03-14T05:40:31.880Z,6.60
2023-03-14T05:43:00.317Z,6.50
2023-03-14T05:45:29.026Z,6.50
2023-03-14T05:47:57.706Z,6.50
2023-03-14T05:50:26.382Z,6.60
2023-03-14T05:52:54.802Z,6.60
2023-03-14T05:55:23.463Z,6.60
2023-03-14T05:57:53.332Z,6.60
2023-03-14T06:00:23.347Z,6.60
2023-03-14T06:02:51.925Z,6.50
2023-03-14T06:05:21.068Z,6.60
2023-03-14T06:07:49.569Z,6.70
2023-03-14T06:10:18.240Z,6.70
2023-03-14T06:12:46.686Z,6.70
2023-03-14T06:15:16.532Z,6.70
2023-03-14T06:17:45.059Z,6.80
2023-03-14T06:20:14.496Z,6.70
2023-03-14T06:22:43.155Z,6.70
2023-03-14T06:25:11.794Z,6.70
2023-03-14T06:27:40.355Z,6.70
2023-03-14T06:30:10.805Z,6.60
2023-03-14T06:32:40.693Z,6.70
2023-03-14T06:35:10.183Z,6.70
2023-03-14T06:37:38.714Z,6.80
2023-03-14T06:40:09.797Z,6.90
2023-03-14T06:42:38.235Z,7.00
2023-03-14T06:45:09.532Z,7.00
2023-03-14T06:47:39.225Z,7.00
2023-03-14T06:50:11.392Z,7.10
2023-03-14T06:52:42.258Z,7.10
2023-03-14T06:55:11.195Z,7.10
2023-03-14T06:57:39.683Z,7.20
2023-03-14T07:00:11.213Z,7.20
2023-03-14T07:02:43.023Z,7.20
2023-03-14T07:05:13.528Z,7.30
2023-03-14T07:07:42.010Z,7.40
2023-03-14T07:10:12.224Z,7.50
2023-03-14T07:12:40.652Z,7.50
2023-03-14T07:18:03.240Z,7.70
2023-03-14T07:20:33.813Z,7.70
2023-03-14T07:23:05.036Z,7.80
2023-03-14T07:25:33.526Z,7.90
2023-03-14T07:28:02.051Z,7.90
2023-03-14T07:30:30.557Z,7.90
2023-03-14T07:32:59.267Z,7.80
2023-03-14T07:35:28.084Z,7.70
2023-03-14T07:37:57.886Z,7.70
2023-03-14T07:40:26.361Z,7.70
2023-03-14T07:42:56.246Z,7.60
2023-03-14T07:45:28.188Z,7.60
2023-03-14T07:47:58.538Z,7.60
2023-03-14T07:50:27.522Z,7.50
2023-03-14T07:52:57.674Z,7.50
2023-03-14T07:55:26.183Z,7.50
2023-03-14T07:57:54.665Z,7.50
2023-03-14T08:00:24.171Z,7.60
2023-03-14T08:02:52.788Z,7.60
2023-03-14T08:05:21.274Z,7.60
2023-03-14T08:07:49.702Z,7.60
2023-03-14T08:10:26.070Z,7.70
2023-03-14T08:12:57.996Z,7.70
2023-03-14T08:15:28.068Z,7.70
2023-03-14T08:17:56.950Z,7.70
2023-03-14T08:20:29.436Z,7.60
2023-03-14T08:22:59.676Z,7.60
2023-03-14T08:25:30.534Z,7.70
2023-03-14T08:27:59.209Z,7.70
2023-03-14T08:30:28.097Z,7.70
2023-03-14T08:32:58.663Z,7.90
2023-03-14T08:35:27.475Z,8.00
2023-03-14T08:37:57.307Z,8.00
2023-03-14T08:40:26.044Z,8.00
2023-03-14T08:42:56.037Z,8.00
2023-03-14T08:45:26.149Z,8.10
2023-03-14T08:47:54.889Z,8.10
2023-03-14T08:50:24.337Z,8.10
2023-03-14T08:52:53.247Z,8.10
2023-03-14T08:55:21.873Z,8.10
2023-03-14T08:57:50.602Z,8.00
2023-03-14T09:00:22.284Z,7.90
2023-03-14T09:02:51.010Z,7.90
2023-03-14T09:05:20.087Z,7.80
2023-03-14T09:07:48.977Z,7.70
2023-03-14T09:10:17.828Z,7.70
2023-03-14T09:12:46.567Z,7.70
2023-03-14T09:15:14.995Z,7.60
2023-03-14T09:17:46.603Z,7.60
2023-03-14T09:20:15.501Z,7.70
2023-03-14T09:22:44.615Z,7.80
2023-03-14T09:25:13.400Z,7.90
2023-03-14T09:30:31.744Z,8.00
2023-03-14T09:33:03.035Z,8.00
2023-03-14T09:35:31.572Z,8.10
2023-03-14T09:38:00.151Z,8.10
2023-03-14T09:40:37.711Z,8.10
2023-03-14T09:43:06.920Z,8.10
2023-03-14T09:45:39.096Z,8.10
2023-03-14T09:48:15.060Z,8.10
2023-03-14T09:50:48.250Z,8.00
2023-03-14T09:53:20.231Z,7.90
2023-03-14T09:55:52.736Z,7.90
2023-03-14T09:58:23.528Z,7.90
2023-03-14T10:00:55.328Z,7.70
2023-03-14T10:03:34.923Z,7.60
2023-03-14T10:06:05.400Z,7.70
2023-03-14T10:08:33.841Z,7.50
2023-03-14T10:11:03.819Z,7.50
2023-03-14T10:13:32.348Z,7.40
2023-03-14T10:16:03.981Z,7.40
2023-03-14T10:18:35.272Z,7.40
2023-03-14T10:21:08.908Z,7.40
2023-03-14T10:23:38.055Z,7.40
2023-03-14T10:26:15.604Z,7.50
2023-03-14T10:28:48.151Z,7.50
2023-03-14T10:31:18.093Z,7.40
2023-03-14T10:34:02.066Z,7.10
2023-03-14T10:36:32.879Z,7.00
2023-03-14T10:39:26.638Z,6.90
2023-03-14T10:41:59.944Z,6.90
2023-03-14T10:44:28.797Z,6.80
2023-03-14T10:47:03.663Z,6.80
2023-03-14T10:49:36.596Z,6.70
2023-03-14T10:52:19.968Z,6.80
2023-03-14T10:54:51.031Z,6.80
2023-03-14T10:57:22.307Z,6.80
2023-03-14T10:59:51.168Z,6.80
2023-03-14T11:02:46.165Z,6.80
2023-03-14T11:05:28.496Z,6.80
2023-03-14T11:08:04.281Z,6.70
2023-03-14T11:10:36.420Z,6.70
2023-03-14T11:13:18.373Z,6.60
2023-03-14T11:16:04.439Z,6.60
2023-03-14T11:18:57.442Z,6.60
2023-03-14T11:21:35.159Z,6.60
2023-03-14T11:24:23.581Z,6.60
2023-03-14T11:27:00.335Z,6.60
2023-03-14T11:29:37.226Z,6.60
2023-03-14T11:32:16.360Z,6.50
2023-03-14T11:34:53.058Z,6.40
2023-03-14T11:37:28.919Z,6.50
2023-03-14T11:40:10.865Z,6.50
2023-03-14T11:42:43.001Z,6.60
2023-03-14T11:45:20.350Z,6.70
2023-03-14T11:47:54.237Z,6.70
2023-03-14T11:50:28.106Z,6.70
2023-03-14T11:53:05.982Z,6.80
2023-03-14T11:55:37.019Z,6.80
2023-03-14T11:58:15.475Z,6.80
2023-03-14T12:00:45.870Z,6.80
2023-03-14T12:03:21.302Z,6.30
2023-03-14T12:06:01.526Z,5.80
2023-03-14T12:08:48.721Z,5.40
2023-03-14T12:11:25.874Z,5.30
2023-03-14T12:13:56.273Z,5.20
2023-03-14T12:16:41.263Z,5.20
2023-03-14T12:19:36.027Z,5.20
2023-03-14T12:22:24.737Z,5.30
2023-03-14T12:24:58.877Z,5.40
2023-03-14T12:28:15.422Z,5.40
2023-03-14T12:30:44.744Z,5.50
2023-03-14T12:33:34.700Z,5.50
2023-03-14T12:36:07.505Z,5.60
2023-03-14T12:39:06.470Z,5.50
2023-03-14T12:41:45.393Z,5.20
2023-03-14T12:44:42.948Z,5.20
2023-03-14T12:47:52.858Z,5.00
2023-03-14T12:50:28.663Z,4.90
2023-03-14T12:53:41.704Z,4.80
2023-03-14T12:56:50.668Z,4.70
2023-03-14T12:59:38.116Z,4.60
2023-03-14T13:02:28.483Z,4.60
2023-03-14T13:05:06.585Z,4.60
2023-03-14T13:07:41.887Z,4.60
2023-03-14T13:10:22.446Z,4.80
2023-03-14T13:12:56.786Z,4.70
2023-03-14T13:15:32.551Z,4.70
2023-03-14T13:18:07.623Z,4.70
2023-03-14T13:20:40.904Z,4.80
2023-03-14T13:23:23.434Z,4.70
2023-03-14T13:25:52.366Z,4.60
2023-03-14T13:28:23.067Z,4.60
2023-03-14T13:30:57.418Z,4.70
2023-03-14T13:33:26.327Z,4.70
2023-03-14T13:35:59.721Z,4.70
2023-03-14T13:38:31.328Z,4.70
2023-03-14T13:41:02.113Z,4.70
2023-03-14T13:43:34.420Z,4.60
2023-03-14T13:46:08.692Z,4.60
2023-03-14T13:48:46.751Z,4.70
2023-03-14T13:51:19.248Z,4.80
2023-03-14T13:53:50.114Z,4.80
2023-03-14T13:56:20.799Z,4.80
2023-03-14T13:58:51.325Z,4.80
2023-03-14T14:01:22.836Z,4.80
2023-03-14T14:03:53.999Z,4.70
2023-03-14T14:06:32.494Z,4.60
2023-03-14T14:09:05.494Z,4.50
2023-03-14T14:11:53.791Z,4.60
2023-03-14T14:14:34.972Z,4.60
2023-03-14T14:17:05.898Z,4.60
2023-03-14T14:19:36.984Z,4.60
2023-03-14T14:22:08.123Z,4.60
2023-03-14T14:24:38.422Z,4.50
2023-03-14T14:27:16.807Z,4.50
2023-03-14T14:29:58.901Z,4.60
2023-03-14T14:32:27.847Z,4.60
2023-03-14T14:35:01.585Z,4.70
2023-03-14T14:37:33.748Z,4.70
2023-03-14T14:40:09.948Z,4.70
2023-03-14T14:42:42.931Z,4.60
2023-03-14T14:45:20.066Z,4.60
2023-03-14T14:47:53.921Z,4.60
2023-03-14T14:50:32.554Z,4.60
2023-03-14T14:53:02.943Z,4.50
2023-03-14T14:55:35.301Z,4.60
2023-03-14T14:58:22.671Z,4.60
2023-03-14T15:00:59.920Z,4.60
2023-03-14T15:03:34.806Z,4.50
2023-03-14T15:06:04.768Z,4.60
2023-03-14T15:08:33.522Z,4.70
2023-03-14T15:11:02.562Z,4.80
2023-03-14T15:13:31.584Z,4.80
2023-03-14T15:16:01.580Z,4.80
2023-03-14T15:18:32.454Z,4.80
2023-03-14T15:21:01.179Z,4.70
2023-03-14T15:23:29.605Z,4.70
2023-03-14T15:25:58.111Z,4.70
2023-03-14T15:28:28.898Z,4.70
2023-03-14T15:31:00.892Z,4.70
2023-03-14T15:33:29.989Z,4.80
2023-03-14T15:35:59.266Z,4.80
2023-03-14T15:38:27.697Z,4.90
2023-03-14T15:40:56.123Z,4.80
2023-03-14T15:43:24.660Z,4.70
2023-03-14T15:45:53.176Z,4.90
2023-03-14T15:48:23.927Z,5.00
2023-03-14T15:50:52.357Z,5.10
2023-03-14T15:53:21.061Z,5.10
2023-03-14T15:55:49.508Z,5.00
2023-03-14T15:58:22.076Z,4.90
2023-03-14T16:00:51.735Z,4.90
2023-03-14T16:03:20.618Z,5.00
2023-03-14T16:05:50.668Z,5.00
2023-03-14T16:08:19.158Z,5.00
2023-03-14T16:10:48.387Z,4.90
2023-03-14T16:13:17.887Z,4.90
2023-03-14T16:15:56.549Z,4.80
2023-03-14T16:18:25.364Z,4.80
2023-03-14T16:20:57.259Z,4.80
2023-03-14T16:23:26.527Z,4.80
2023-03-14T16:25:56.563Z,4.70
2023-03-14T16:28:25.609Z,4.70
2023-03-14T16:30:55.546Z,4.70
2023-03-14T16:33:25.399Z,4.70
2023-03-14T16:36:01.317Z,4.70
2023-03-14T16:38:33.704Z,4.70
2023-03-14T16:41:06.034Z,4.70
2023-03-14T16:43:37.258Z,4.70
2023-03-14T16:46:07.843Z,4.70
2023-03-14T16:48:36.689Z,4.60
2023-03-14T16:51:07.001Z,4.60
2023-03-14T16:53:35.444Z,4.60
2023-03-14T16:56:03.955Z,4.60
2023-03-14T16:58:32.444Z,4.60
2023-03-14T17:01:10.462Z,4.60
2023-03-14T17:03:40.922Z,4.60
2023-03-14T17:06:13.868Z,4.50
2023-03-14T17:08:42.684Z,4.50
2023-03-14T17:11:11.811Z,4.40
2023-03-14T17:13:40.748Z,4.40
2023-03-14T17:16:10.322Z,4.40
2023-03-14T17:18:39.454Z,4.40
2023-03-14T17:21:09.961Z,3.10
2023-03-14T17:23:39.614Z,4.10
2023-03-14T17:26:08.423Z,4.00
2023-03-14T17:28:37.140Z,3.80
2023-03-14T17:31:08.192Z,3.60
2023-03-14T17:33:37.435Z,3.60
2023-03-14T17:36:07.478Z,3.50
2023-03-14T17:38:38.474Z,3.50
2023-03-14T17:41:11.330Z,3.60
2023-03-14T17:43:40.832Z,3.60
2023-03-14T17:46:14.754Z,3.50
2023-03-14T17:48:44.910Z,3.50
2023-03-14T17:51:14.323Z,3.50
2023-03-14T17:53:44.348Z,3.40
2023-03-14T17:56:12.859Z,3.50
2023-03-14T17:58:43.961Z,3.50
2023-03-14T18:01:15.234Z,3.40
2023-03-14T18:03:45.694Z,3.40
2023-03-14T18:06:16.347Z,3.30
2023-03-14T18:08:47.295Z,3.30
2023-03-14T18:11:16.344Z,3.20
2023-03-14T18:13:45.582Z,3.10
2023-03-14T18:16:15.396Z,3.10
2023-03-14T18:18:48.200Z,3.00
2023-03-14T18:21:17.292Z,3.10
2023-03-14T18:23:48.536Z,3.00
2023-03-14T18:26:17.203Z,3.10
2023-03-14T18:28:47.068Z,3.10
2023-03-14T18:31:19.032Z,3.10
2023-03-14T18:33:48.861Z,3.10
2023-03-14T18:36:17.625Z,3.10
2023-03-14T18:38:49.326Z,3.10
2023-03-14T18:41:20.252Z,3.10
2023-03-14T18:43:48.924Z,3.10
2023-03-14T18:46:17.606Z,3.20
2023-03-14T18:48:46.119Z,3.20
2023-03-14T18:51:16.929Z,3.20
2023-03-14T18:53:50.002Z,3.10
2023-03-14T18:56:19.342Z,3.10
2023-03-14T18:58:47.777Z,3.00
2023-03-14T19:01:17.737Z,3.00
2023-03-14T19:03:48.356Z,3.00
2023-03-14T19:06:18.166Z,3.10
2023-03-14T19:08:50.572Z,3.10
2023-03-14T19:11:19.452Z,3.00
2023-03-14T19:13:48.136Z,3.10
2023-03-14T19:16:17.925Z,3.10
2023-03-14T19:18:46.418Z,3.10
2023-03-14T19:21:15.597Z,3.10
2023-03-14T19:23:49.262Z,3.10
2023-03-14T19:26:19.323Z,3.10
2023-03-14T19:28:48.082Z,3.10
2023-03-14T19:31:16.640Z,3.20
2023-03-14T19:33:45.143Z,3.20
2023-03-14T19:36:24.599Z,3.10
2023-03-14T19:38:54.624Z,3.10
2023-03-14T19:41:27.630Z,3.10
2023-03-14T19:43:56.536Z,3.10
2023-03-14T19:46:25.423Z,3.20
2023-03-14T19:48:55.257Z,3.20
2023-03-14T19:51:24.188Z,3.30
2023-03-14T19:53:53.485Z,3.30
2023-03-14T19:56:24.332Z,3.30
2023-03-14T19:58:53.614Z,3.20
2023-03-14T20:01:24.383Z,3.20
2023-03-14T20:03:53.176Z,3.20
2023-03-14T20:06:22.818Z,3.20
2023-03-14T20:08:51.274Z,3.20
2023-03-14T20:11:20.084Z,3.20
2023-03-14T20:13:49.907Z,3.20
2023-03-14T20:16:18.499Z,3.20
2023-03-14T20:18:47.479Z,3.20
2023-03-14T20:21:16.027Z,3.20
2023-03-14T20:23:44.964Z,3.20
2023-03-14T20:26:13.749Z,3.20
2023-03-14T20:28:44.822Z,3.10
2023-03-14T20:31:15.858Z,3.10
2023-03-14T20:33:44.318Z,3.00
2023-03-14T20:36:12.875Z,3.00
2023-03-14T20:38:41.484Z,3.00
2023-03-14T20:41:11.201Z,2.90
2023-03-14T20:43:40.074Z,3.00
2023-03-14T20:46:08.671Z,3.00
2023-03-14T20:48:39.331Z,3.00
2023-03-14T20:51:07.875Z,3.00
2023-03-14T20:53:36.314Z,2.80
2023-03-14T20:56:04.951Z,2.80
2023-03-14T20:58:34.036Z,2.80
2023-03-14T21:01:04.020Z,2.70
2023-03-14T21:03:32.548Z,2.40
2023-03-14T21:06:02.445Z,2.40
2023-03-14T21:08:31.097Z,2.50
2023-03-14T21:10:59.521Z,2.50
2023-03-14T21:13:28.022Z,2.50
2023-03-14T21:15:56.692Z,2.50
2023-03-14T21:18:25.188Z,2.50
2023-03-14T21:20:56.972Z,2.60
2023-03-14T21:23:27.501Z,2.50
2023-03-14T21:25:57.110Z,2.50
2023-03-14T21:28:25.844Z,2.60
2023-03-14T21:30:54.755Z,2.60
2023-03-14T21:33:23.722Z,2.60
2023-03-14T21:35:54.736Z,2.60
2023-03-14T21:38:23.179Z,2.60
2023-03-14T21:40:57.559Z,2.60
2023-03-14T21:43:26.422Z,2.60
2023-03-14T21:45:55.067Z,2.60
2023-03-14T21:48:24.442Z,2.40
2023-03-14T21:50:53.308Z,2.20
2023-03-14T21:53:22.038Z,2.10
2023-03-14T21:55:53.555Z,2.00
2023-03-14T21:58:22.393Z,1.90
2023-03-14T22:00:51.045Z,1.80
2023-03-14T22:03:23.562Z,1.80
2023-03-14T22:05:52.092Z,1.80
2023-03-14T22:08:22.812Z,1.80
2023-03-14T22:10:55.682Z,1.80
2023-03-14T22:13:26.326Z,1.70
2023-03-14T22:15:54.776Z,1.70
2023-03-14T22:18:25.363Z,1.70
2023-03-14T22:20:54.043Z,1.70
2023-03-14T22:23:22.497Z,1.80
2023-03-14T22:25:52.404Z,1.80
2023-03-14T22:28:21.477Z,1.80
2023-03-14T22:30:51.545Z,1.70
2023-03-14T22:33:20.794Z,1.70
2023-03-14T22:35:51.080Z,1.70
2023-03-14T22:38:19.940Z,1.60
2023-03-14T22:40:48.887Z,1.60
2023-03-14T22:43:18.917Z,1.50
2023-03-14T22:45:47.720Z,1.50
2023-03-14T22:48:16.302Z,1.50
2023-03-14T22:50:45.459Z,1.50
2023-03-14T22:53:13.910Z,1.50
2023-03-14T22:55:42.336Z,1.40
2023-03-14T22:58:10.888Z,1.50
2023-03-14T23:00:41.164Z,1.50
2023-03-14T23:03:09.634Z,1.50
2023-03-14T23:05:38.390Z,1.50
2023-03-14T23:08:07.427Z,1.40
2023-03-14T23:10:36.427Z,1.40
2023-03-14T23:13:06.607Z,1.30
2023-03-14T23:15:35.775Z,1.30
2023-03-14T23:18:05.907Z,1.30
2023-03-14T23:20:34.445Z,1.30
2023-03-14T23:23:02.989Z,1.20
2023-03-14T23:25:33.741Z,1.10
2023-03-14T23:28:07.241Z,1.10
2023-03-14T23:30:35.700Z,1.10
2023-03-14T23:33:06.860Z,1.00
2023-03-14T23:35:35.321Z,0.90
2023-03-14T23:38:03.769Z,0.90
2023-03-14T23:40:32.230Z,0.90
2023-03-14T23:43:00.663Z,0.90
2023-03-14T23:45:29.101Z,0.90
2023-03-14T23:47:58.270Z,0.90
2023-03-14T23:50:28.077Z,0.90
2023-03-14T23:52:56.500Z,0.90
2023-03-14T23:55:25.142Z,0.90
2023-03-14T23:57:53.590Z,0.80
